Bei Facebook empfehlenBei Twitter postenGoogle plusPinterest

Das Wetter im Erzgebirge am 18.11.2016

Wetter und Klima am 18.11.2016 Holzhau im Erzgebirge (630m ü.NN)
Letzte gemessene Temperatur und Uhrzeit der Messung23:45:00 Uhr3.20 °C
Temperatur (Maximum / Höchstwert) und Uhrzeit der Messung13:00:00 Uhr11.30 °C
Temperatur (Minimum / Tiefstwert) und Uhrzeit der Messung23:30:002.90 °C
Errechneter Absolutwert der Temperaturschwankungen zwischen Tmin und Tmax des Tages8.40 K
Errechnete Tagesmitteltemperatur7.23542 °C
Gesamt - Niederschlag des Tages (in flüssiger Form)0.00 Liter / m²
Luftdruck (Maximum / Höchstwert) und Zeitpunkt der Messung23:45:00 Uhr1007.10 hPa
Luftdruck (Minimum / Tiefstwert) und Zeitpunkt der Messung12:45:00 Uhr1000.00 hPa
Errechneter Absolutwert der Luftdruckschwankungen des Tages7.10 hPa
Höchste gemessene Windgeschwindigkeit und Uhrzeit der Messung23:45:00 Uhr0.00 km/h
Errechnete Windhäufigkeit in Relation zu den Messwerten des Tages0.00000 %
Niedrigste Windkühle (Windchill) und Zeitpunkt der Messung23:30:00 Uhr2.90 °C
Taupunkt (Maximum / Höchstwert) und Uhrzeit der Messung12:15:00 Uhr8.60 °C
Taupunkt (Minimum / Tiefstwert) und Uhrzeit der Messung23:15:001.10 °C
Anzahl der automatisch eingelesenen Messwerte 96

Detaillierte Wetter- und Klima- Messwerte für den 18.11.2016 in Holzhau im Erzgebirge (630m ü.NN)
ZeitTemperaturLuftdruckRel. LuftfeuchteWindWindrichtungWindchillTaupunktNiederschlag l/m²
23:45:003.20 °C1007.10 hPa89.00 %1.60 °C 
23:30:002.90 °C1006.30 hPa89.00 %1.30 °C 
23:15:002.90 °C1006.80 hPa88.00 %1.10 °C 
23:00:003.00 °C1006.40 hPa88.00 %1.20 °C 
22:45:003.30 °C1006.40 hPa87.00 %1.30 °C 
22:30:003.40 °C1006.30 hPa87.00 %1.40 °C 
22:15:003.60 °C1006.30 hPa86.00 %1.50 °C 
22:00:004.10 °C1006.10 hPa85.00 %1.80 °C 
21:45:004.80 °C1005.60 hPa84.00 %2.30 °C 
21:30:005.30 °C1005.60 hPa84.00 %2.80 °C 
21:15:005.40 °C1005.40 hPa84.00 %2.90 °C 
21:00:005.60 °C1004.90 hPa85.00 %3.30 °C 
20:45:005.80 °C1004.60 hPa85.00 %3.50 °C 
20:30:005.90 °C1004.20 hPa86.00 %3.70 °C 
20:15:005.90 °C1004.40 hPa86.00 %3.70 °C 
20:00:005.80 °C1004.70 hPa87.00 %3.80 °C 
19:45:005.60 °C1004.80 hPa88.00 %3.80 °C 
19:30:005.50 °C1004.30 hPa89.00 %3.80 °C 
19:15:005.50 °C1004.20 hPa88.00 %3.70 °C 
19:00:005.60 °C1004.60 hPa88.00 %3.80 °C 
18:45:005.80 °C1004.60 hPa88.00 %4.00 °C 
18:30:006.00 °C1004.30 hPa87.00 %4.00 °C 
18:15:006.40 °C1003.90 hPa86.00 %4.20 °C 
18:00:007.20 °C1003.40 hPa85.00 %4.90 °C 
17:45:007.70 °C1003.20 hPa88.00 %5.80 °C 
17:30:007.90 °C1002.90 hPa90.00 %6.40 °C 
17:15:007.90 °C1002.70 hPa90.00 %6.40 °C 
17:00:007.90 °C1002.30 hPa90.00 %6.40 °C 
16:45:008.00 °C1002.10 hPa89.00 %6.30 °C 
16:30:008.20 °C1002.00 hPa89.00 %6.50 °C 
16:15:008.50 °C1001.80 hPa88.00 %6.60 °C 
16:00:008.90 °C1001.60 hPa86.00 %6.70 °C 
15:45:009.90 °C1001.30 hPa84.00 %7.30 °C 
15:30:0010.40 °C1000.90 hPa82.00 %7.50 °C 
15:15:0010.60 °C1000.80 hPa82.00 %7.70 °C 
15:00:0010.60 °C1000.90 hPa82.00 %7.70 °C 
14:45:0010.60 °C1000.60 hPa82.00 %7.70 °C 
14:30:0010.40 °C1000.50 hPa84.00 %7.80 °C 
14:15:0010.50 °C1000.40 hPa84.00 %7.90 °C 
14:00:0010.60 °C1000.30 hPa83.00 %7.80 °C 
13:45:0010.80 °C1000.50 hPa83.00 %8.00 °C 
13:30:0011.10 °C1000.50 hPa83.00 %8.30 °C 
13:15:0011.20 °C1000.30 hPa83.00 %8.40 °C 
13:00:0011.30 °C1000.20 hPa83.00 %8.50 °C 
12:45:0011.10 °C1000.00 hPa84.00 %8.50 °C 
12:30:0010.90 °C1000.30 hPa85.00 %8.50 °C 
12:15:0010.80 °C1000.50 hPa86.00 %8.60 °C 
12:00:0010.50 °C1000.40 hPa87.00 %8.40 °C 
11:45:0010.10 °C1000.50 hPa88.00 %8.20 °C 
11:30:009.60 °C1000.60 hPa89.00 %7.90 °C 
11:15:009.30 °C1000.70 hPa90.00 %7.70 °C 
11:00:009.30 °C1000.70 hPa91.00 %7.90 °C 
10:45:008.90 °C1000.70 hPa91.00 %7.50 °C 
10:30:008.70 °C1000.70 hPa92.00 %7.50 °C 
10:15:008.40 °C1000.50 hPa93.00 %7.30 °C 
10:00:008.10 °C1000.80 hPa93.00 %7.00 °C 
09:45:007.80 °C1000.50 hPa93.00 %6.70 °C 
09:30:007.60 °C1000.60 hPa94.00 %6.70 °C 
09:15:007.50 °C1000.40 hPa94.00 %6.60 °C 
09:00:007.30 °C1000.70 hPa94.00 %6.40 °C 
08:45:007.20 °C1000.70 hPa94.00 %6.30 °C 
08:30:007.10 °C1001.10 hPa94.00 %6.20 °C 
08:15:006.90 °C1000.90 hPa94.00 %6.00 °C 
08:00:006.90 °C1000.80 hPa94.00 %6.00 °C 
07:45:006.90 °C1000.80 hPa94.00 %6.00 °C 
07:30:006.80 °C1000.70 hPa94.00 %5.90 °C 
07:15:006.60 °C1000.70 hPa95.00 %5.90 °C 
07:00:006.40 °C1000.80 hPa95.00 %5.70 °C 
06:45:006.40 °C1000.70 hPa94.00 %5.50 °C 
06:30:006.50 °C1000.70 hPa94.00 %5.60 °C 
06:15:006.50 °C1000.70 hPa95.00 %5.80 °C 
06:00:006.50 °C1001.00 hPa95.00 %5.80 °C 
05:45:006.40 °C1001.30 hPa94.00 %5.50 °C 
05:30:006.40 °C1001.40 hPa95.00 %5.70 °C 
05:15:006.40 °C1001.40 hPa95.00 %5.70 °C 
05:00:006.40 °C1001.30 hPa95.00 %5.70 °C 
04:45:006.40 °C1001.30 hPa95.00 %5.70 °C 
04:30:006.40 °C1001.40 hPa95.00 %5.70 °C 
04:15:006.40 °C1001.60 hPa95.00 %5.70 °C 
04:00:006.40 °C1001.90 hPa95.00 %5.70 °C 
03:45:006.40 °C1002.10 hPa95.00 %5.70 °C 
03:30:006.40 °C1002.30 hPa95.00 %5.70 °C 
03:15:006.40 °C1002.40 hPa95.00 %5.70 °C 
03:00:006.40 °C1002.40 hPa94.00 %5.50 °C 
02:45:006.30 °C1002.60 hPa94.00 %5.40 °C 
02:30:006.40 °C1002.70 hPa94.00 %5.50 °C 
02:15:006.50 °C1003.00 hPa94.00 %5.60 °C 
02:00:006.40 °C1003.10 hPa94.00 %5.50 °C 
01:45:006.50 °C1003.10 hPa94.00 %5.60 °C 
01:30:006.70 °C1003.00 hPa95.00 %6.00 °C 
01:15:006.80 °C1003.30 hPa95.00 %6.10 °C 
01:00:006.90 °C1003.40 hPa95.00 %6.20 °C 
00:45:006.80 °C1003.60 hPa95.00 %6.10 °C 
00:30:006.80 °C1003.50 hPa95.00 %6.10 °C 
00:15:006.80 °C1003.70 hPa95.00 %6.10 °C 
00:00:006.80 °C1004.00 hPa95.00 %6.10 °C 

Permanenter Link zu dieser Seite: Wetter im Erzgebirge am 18.11.2016
Performance-Info: Die Erstellung der Seite / Statistik(en) / Tabelle(n) erforderte 5 Datenbankserver-Abfrage(n) und dauerte 123 Millisekunden. (Dieser Messwert ist von der Gesamt-Auslastung des Servers abhängig.)
Erzgebirge - Wetter | Erzgebirge - Wetter (Mobilgeräte) | Komplette Klimadatenbank